sensor_id;sensor_type;location;lat;lon;timestamp;P1;durP1;ratioP1;P2;durP2;ratioP2
5702;SDS011;2876;51.738;10.050;2022-12-15T00:01:43;22.83;;;12.97;;
5702;SDS011;2876;51.738;10.050;2022-12-15T00:08:07;25.40;;;12.57;;
5702;SDS011;2876;51.738;10.050;2022-12-15T00:14:29;18.60;;;10.27;;
5702;SDS011;2876;51.738;10.050;2022-12-15T00:20:49;20.23;;;11.37;;
5702;SDS011;2876;51.738;10.050;2022-12-15T00:27:10;17.63;;;9.63;;
5702;SDS011;2876;51.738;10.050;2022-12-15T00:33:30;20.47;;;9.87;;
5702;SDS011;2876;51.738;10.050;2022-12-15T00:39:50;19.50;;;10.77;;
5702;SDS011;2876;51.738;10.050;2022-12-15T00:45:59;22.83;;;11.10;;
5702;SDS011;2876;51.738;10.050;2022-12-15T00:52:20;20.63;;;11.43;;
5702;SDS011;2876;51.738;10.050;2022-12-15T00:58:41;23.10;;;11.60;;
5702;SDS011;2876;51.738;10.050;2022-12-15T01:05:01;21.60;;;10.30;;
5702;SDS011;2876;51.738;10.050;2022-12-15T01:11:22;24.27;;;11.60;;
5702;SDS011;2876;51.738;10.050;2022-12-15T01:17:42;17.00;;;9.87;;
5702;SDS011;2876;51.738;10.050;2022-12-15T01:24:03;22.90;;;11.77;;
5702;SDS011;2876;51.738;10.050;2022-12-15T01:30:06;23.80;;;10.60;;
5702;SDS011;2876;51.738;10.050;2022-12-15T01:36:10;27.47;;;13.97;;
5702;SDS011;2876;51.738;10.050;2022-12-15T01:42:12;20.27;;;11.53;;
5702;SDS011;2876;51.738;10.050;2022-12-15T01:54:46;19.17;;;10.70;;
5702;SDS011;2876;51.738;10.050;2022-12-15T02:00:54;18.30;;;10.60;;
5702;SDS011;2876;51.738;10.050;2022-12-15T02:06:56;21.53;;;11.03;;
5702;SDS011;2876;51.738;10.050;2022-12-15T02:13:05;25.30;;;11.90;;
5702;SDS011;2876;51.738;10.050;2022-12-15T02:32:36;17.50;;;10.20;;
5702;SDS011;2876;51.738;10.050;2022-12-15T02:38:58;16.63;;;9.30;;
5702;SDS011;2876;51.738;10.050;2022-12-15T03:04:19;19.20;;;10.10;;
5702;SDS011;2876;51.738;10.050;2022-12-15T03:10:24;20.73;;;10.17;;
5702;SDS011;2876;51.738;10.050;2022-12-15T03:16:26;17.67;;;8.43;;
5702;SDS011;2876;51.738;10.050;2022-12-15T03:22:28;22.00;;;10.43;;
5702;SDS011;2876;51.738;10.050;2022-12-15T03:28:30;18.47;;;9.80;;
5702;SDS011;2876;51.738;10.050;2022-12-15T03:34:33;19.73;;;10.07;;
5702;SDS011;2876;51.738;10.050;2022-12-15T03:40:35;18.77;;;9.47;;
5702;SDS011;2876;51.738;10.050;2022-12-15T03:46:37;14.33;;;8.40;;
5702;SDS011;2876;51.738;10.050;2022-12-15T03:52:39;20.97;;;10.20;;
5702;SDS011;2876;51.738;10.050;2022-12-15T03:58:42;22.83;;;9.87;;
5702;SDS011;2876;51.738;10.050;2022-12-15T04:04:44;25.13;;;12.27;;
5702;SDS011;2876;51.738;10.050;2022-12-15T04:10:46;20.27;;;11.67;;
5702;SDS011;2876;51.738;10.050;2022-12-15T04:16:48;23.70;;;13.10;;
5702;SDS011;2876;51.738;10.050;2022-12-15T04:22:50;21.67;;;10.43;;
5702;SDS011;2876;51.738;10.050;2022-12-15T04:28:52;16.07;;;8.90;;
5702;SDS011;2876;51.738;10.050;2022-12-15T04:35:12;26.03;;;9.07;;
5702;SDS011;2876;51.738;10.050;2022-12-15T04:41:33;25.93;;;12.90;;
5702;SDS011;2876;51.738;10.050;2022-12-15T04:47:53;25.27;;;12.10;;
5702;SDS011;2876;51.738;10.050;2022-12-15T04:54:14;17.30;;;9.00;;
5702;SDS011;2876;51.738;10.050;2022-12-15T05:00:35;24.10;;;13.63;;
5702;SDS011;2876;51.738;10.050;2022-12-15T05:06:55;25.63;;;12.33;;
5702;SDS011;2876;51.738;10.050;2022-12-15T05:13:16;17.50;;;9.23;;
5702;SDS011;2876;51.738;10.050;2022-12-15T05:19:36;16.67;;;8.03;;
5702;SDS011;2876;51.738;10.050;2022-12-15T05:25:57;15.90;;;8.67;;
5702;SDS011;2876;51.738;10.050;2022-12-15T05:32:18;26.43;;;11.70;;
5702;SDS011;2876;51.738;10.050;2022-12-15T05:38:20;20.80;;;11.37;;
5702;SDS011;2876;51.738;10.050;2022-12-15T05:44:22;21.87;;;10.50;;
5702;SDS011;2876;51.738;10.050;2022-12-15T05:50:25;20.43;;;8.63;;
5702;SDS011;2876;51.738;10.050;2022-12-15T05:56:27;16.20;;;9.77;;
5702;SDS011;2876;51.738;10.050;2022-12-15T06:02:29;13.83;;;8.20;;
5702;SDS011;2876;51.738;10.050;2022-12-15T06:08:32;15.40;;;8.90;;
5702;SDS011;2876;51.738;10.050;2022-12-15T06:14:36;17.30;;;9.40;;
5702;SDS011;2876;51.738;10.050;2022-12-15T06:20:38;23.53;;;13.40;;
5702;SDS011;2876;51.738;10.050;2022-12-15T06:26:40;20.27;;;9.60;;
5702;SDS011;2876;51.738;10.050;2022-12-15T06:32:42;21.40;;;9.77;;
5702;SDS011;2876;51.738;10.050;2022-12-15T06:38:44;20.83;;;10.40;;
5702;SDS011;2876;51.738;10.050;2022-12-15T06:44:50;14.80;;;8.57;;
5702;SDS011;2876;51.738;10.050;2022-12-15T06:50:52;20.87;;;10.80;;
5702;SDS011;2876;51.738;10.050;2022-12-15T06:56:54;22.20;;;10.40;;
5702;SDS011;2876;51.738;10.050;2022-12-15T07:02:56;16.30;;;8.43;;
5702;SDS011;2876;51.738;10.050;2022-12-15T07:08:58;15.80;;;9.20;;
5702;SDS011;2876;51.738;10.050;2022-12-15T07:15:00;18.40;;;9.27;;
5702;SDS011;2876;51.738;10.050;2022-12-15T07:21:04;19.63;;;10.47;;
5702;SDS011;2876;51.738;10.050;2022-12-15T07:27:09;20.27;;;10.87;;
5702;SDS011;2876;51.738;10.050;2022-12-15T07:33:11;26.67;;;11.20;;
5702;SDS011;2876;51.738;10.050;2022-12-15T07:39:13;19.43;;;9.80;;
5702;SDS011;2876;51.738;10.050;2022-12-15T07:45:16;22.47;;;9.90;;
5702;SDS011;2876;51.738;10.050;2022-12-15T07:51:18;17.33;;;9.83;;
5702;SDS011;2876;51.738;10.050;2022-12-15T07:57:21;18.83;;;9.53;;
5702;SDS011;2876;51.738;10.050;2022-12-15T08:03:23;22.50;;;13.30;;
5702;SDS011;2876;51.738;10.050;2022-12-15T08:09:25;20.33;;;11.43;;
5702;SDS011;2876;51.738;10.050;2022-12-15T08:15:27;20.63;;;10.23;;
5702;SDS011;2876;51.738;10.050;2022-12-15T08:21:29;19.40;;;10.23;;
5702;SDS011;2876;51.738;10.050;2022-12-15T08:27:33;24.30;;;10.50;;
5702;SDS011;2876;51.738;10.050;2022-12-15T08:33:36;19.17;;;9.70;;
5702;SDS011;2876;51.738;10.050;2022-12-15T08:39:38;19.93;;;10.10;;
5702;SDS011;2876;51.738;10.050;2022-12-15T08:45:41;14.87;;;10.20;;
5702;SDS011;2876;51.738;10.050;2022-12-15T08:51:43;21.97;;;10.57;;
5702;SDS011;2876;51.738;10.050;2022-12-15T08:57:44;26.13;;;11.57;;
5702;SDS011;2876;51.738;10.050;2022-12-15T09:03:47;18.30;;;10.17;;
5702;SDS011;2876;51.738;10.050;2022-12-15T09:09:50;28.37;;;11.30;;
5702;SDS011;2876;51.738;10.050;2022-12-15T09:16:03;31.07;;;12.70;;
5702;SDS011;2876;51.738;10.050;2022-12-15T09:22:10;23.50;;;13.70;;
5702;SDS011;2876;51.738;10.050;2022-12-15T09:28:12;24.37;;;13.13;;
5702;SDS011;2876;51.738;10.050;2022-12-15T09:34:15;46.30;;;12.37;;
5702;SDS011;2876;51.738;10.050;2022-12-15T09:40:17;23.97;;;12.37;;
5702;SDS011;2876;51.738;10.050;2022-12-15T09:46:22;23.60;;;11.87;;
5702;SDS011;2876;51.738;10.050;2022-12-15T09:52:38;19.60;;;9.53;;
5702;SDS011;2876;51.738;10.050;2022-12-15T09:58:55;23.30;;;11.63;;
5702;SDS011;2876;51.738;10.050;2022-12-15T10:12:19;22.57;;;12.20;;
5702;SDS011;2876;51.738;10.050;2022-12-15T10:18:31;23.53;;;13.03;;
5702;SDS011;2876;51.738;10.050;2022-12-15T10:24:41;26.67;;;13.20;;
5702;SDS011;2876;51.738;10.050;2022-12-15T10:31:08;23.80;;;11.83;;
5702;SDS011;2876;51.738;10.050;2022-12-15T10:37:25;24.57;;;12.50;;
5702;SDS011;2876;51.738;10.050;2022-12-15T10:49:47;34.30;;;13.40;;
5702;SDS011;2876;51.738;10.050;2022-12-15T10:55:50;23.40;;;13.27;;
5702;SDS011;2876;51.738;10.050;2022-12-15T11:08:33;25.07;;;13.17;;
5702;SDS011;2876;51.738;10.050;2022-12-15T11:14:45;26.17;;;12.30;;
5702;SDS011;2876;51.738;10.050;2022-12-15T11:21:01;21.93;;;12.40;;
5702;SDS011;2876;51.738;10.050;2022-12-15T11:27:32;15.07;;;10.87;;
5702;SDS011;2876;51.738;10.050;2022-12-15T11:33:39;27.33;;;13.23;;
5702;SDS011;2876;51.738;10.050;2022-12-15T12:12:34;15.50;;;9.90;;
5702;SDS011;2876;51.738;10.050;2022-12-15T12:19:17;16.53;;;10.37;;
5702;SDS011;2876;51.738;10.050;2022-12-15T12:25:27;20.67;;;10.30;;
5702;SDS011;2876;51.738;10.050;2022-12-15T12:38:06;22.23;;;10.60;;
5702;SDS011;2876;51.738;10.050;2022-12-15T12:44:19;17.20;;;10.53;;
5702;SDS011;2876;51.738;10.050;2022-12-15T12:50:37;18.70;;;10.43;;
5702;SDS011;2876;51.738;10.050;2022-12-15T12:56:43;20.70;;;10.97;;
5702;SDS011;2876;51.738;10.050;2022-12-15T13:08:52;17.70;;;10.40;;
5702;SDS011;2876;51.738;10.050;2022-12-15T13:14:55;18.77;;;10.90;;
5702;SDS011;2876;51.738;10.050;2022-12-15T13:20:59;20.00;;;11.27;;
5702;SDS011;2876;51.738;10.050;2022-12-15T13:27:42;17.20;;;10.70;;
5702;SDS011;2876;51.738;10.050;2022-12-15T13:46:36;19.83;;;12.00;;
5702;SDS011;2876;51.738;10.050;2022-12-15T13:52:49;21.90;;;11.57;;
5702;SDS011;2876;51.738;10.050;2022-12-15T13:59:19;32.23;;;13.37;;
5702;SDS011;2876;51.738;10.050;2022-12-15T14:05:46;21.40;;;12.40;;
5702;SDS011;2876;51.738;10.050;2022-12-15T14:12:00;26.37;;;14.53;;
5702;SDS011;2876;51.738;10.050;2022-12-15T14:18:04;20.63;;;13.37;;
5702;SDS011;2876;51.738;10.050;2022-12-15T14:24:14;26.23;;;12.73;;
5702;SDS011;2876;51.738;10.050;2022-12-15T14:30:45;23.13;;;13.83;;
5702;SDS011;2876;51.738;10.050;2022-12-15T14:36:50;21.90;;;12.70;;
5702;SDS011;2876;51.738;10.050;2022-12-15T14:42:55;25.37;;;14.00;;
5702;SDS011;2876;51.738;10.050;2022-12-15T14:48:58;26.27;;;14.50;;
5702;SDS011;2876;51.738;10.050;2022-12-15T15:07:41;25.10;;;14.57;;
5702;SDS011;2876;51.738;10.050;2022-12-15T15:13:46;21.40;;;13.37;;
5702;SDS011;2876;51.738;10.050;2022-12-15T15:19:49;24.20;;;12.10;;
5702;SDS011;2876;51.738;10.050;2022-12-15T15:44:27;14.83;;;7.60;;
5702;SDS011;2876;51.738;10.050;2022-12-15T15:50:28;18.20;;;8.33;;
5702;SDS011;2876;51.738;10.050;2022-12-15T15:56:31;14.97;;;9.07;;
5702;SDS011;2876;51.738;10.050;2022-12-15T16:02:32;14.80;;;8.63;;
5702;SDS011;2876;51.738;10.050;2022-12-15T16:08:35;19.07;;;9.33;;
5702;SDS011;2876;51.738;10.050;2022-12-15T16:14:37;16.63;;;9.83;;
5702;SDS011;2876;51.738;10.050;2022-12-15T16:20:40;12.00;;;7.87;;
5702;SDS011;2876;51.738;10.050;2022-12-15T16:26:46;15.67;;;8.63;;
5702;SDS011;2876;51.738;10.050;2022-12-15T16:32:50;14.03;;;8.00;;
5702;SDS011;2876;51.738;10.050;2022-12-15T16:38:55;17.40;;;9.20;;
5702;SDS011;2876;51.738;10.050;2022-12-15T16:44:57;15.47;;;8.97;;
5702;SDS011;2876;51.738;10.050;2022-12-15T16:51:00;18.80;;;10.27;;
5702;SDS011;2876;51.738;10.050;2022-12-15T16:57:02;21.60;;;13.10;;
5702;SDS011;2876;51.738;10.050;2022-12-15T17:03:07;20.20;;;11.90;;
5702;SDS011;2876;51.738;10.050;2022-12-15T17:09:19;18.07;;;10.83;;
5702;SDS011;2876;51.738;10.050;2022-12-15T17:15:25;17.60;;;10.30;;
5702;SDS011;2876;51.738;10.050;2022-12-15T17:21:28;21.73;;;11.57;;
5702;SDS011;2876;51.738;10.050;2022-12-15T17:27:34;24.83;;;12.30;;
5702;SDS011;2876;51.738;10.050;2022-12-15T17:33:35;19.10;;;11.20;;
5702;SDS011;2876;51.738;10.050;2022-12-15T17:39:38;22.70;;;11.67;;
5702;SDS011;2876;51.738;10.050;2022-12-15T17:45:41;22.90;;;12.30;;
5702;SDS011;2876;51.738;10.050;2022-12-15T17:51:43;17.20;;;10.47;;
5702;SDS011;2876;51.738;10.050;2022-12-15T17:57:46;24.73;;;11.90;;
5702;SDS011;2876;51.738;10.050;2022-12-15T18:03:48;24.20;;;11.97;;
5702;SDS011;2876;51.738;10.050;2022-12-15T18:09:51;27.20;;;14.07;;
5702;SDS011;2876;51.738;10.050;2022-12-15T18:15:54;26.03;;;13.50;;
5702;SDS011;2876;51.738;10.050;2022-12-15T18:21:57;27.93;;;12.70;;
5702;SDS011;2876;51.738;10.050;2022-12-15T18:27:58;23.97;;;12.87;;
5702;SDS011;2876;51.738;10.050;2022-12-15T18:34:00;23.20;;;13.00;;
5702;SDS011;2876;51.738;10.050;2022-12-15T18:40:07;24.47;;;12.77;;
5702;SDS011;2876;51.738;10.050;2022-12-15T18:46:16;26.87;;;15.60;;
5702;SDS011;2876;51.738;10.050;2022-12-15T18:52:21;30.63;;;15.17;;
5702;SDS011;2876;51.738;10.050;2022-12-15T18:58:30;24.40;;;13.70;;
5702;SDS011;2876;51.738;10.050;2022-12-15T19:04:36;26.80;;;14.57;;
5702;SDS011;2876;51.738;10.050;2022-12-15T19:10:45;22.07;;;12.53;;
5702;SDS011;2876;51.738;10.050;2022-12-15T19:16:53;21.03;;;10.60;;
5702;SDS011;2876;51.738;10.050;2022-12-15T19:23:14;22.70;;;13.37;;
5702;SDS011;2876;51.738;10.050;2022-12-15T19:29:18;21.53;;;11.97;;
5702;SDS011;2876;51.738;10.050;2022-12-15T19:35:22;22.17;;;11.57;;
5702;SDS011;2876;51.738;10.050;2022-12-15T19:41:25;23.77;;;12.57;;
5702;SDS011;2876;51.738;10.050;2022-12-15T19:47:28;27.93;;;13.03;;
5702;SDS011;2876;51.738;10.050;2022-12-15T19:53:30;21.43;;;12.03;;
5702;SDS011;2876;51.738;10.050;2022-12-15T19:59:32;20.43;;;11.60;;
5702;SDS011;2876;51.738;10.050;2022-12-15T20:05:34;21.57;;;11.43;;
5702;SDS011;2876;51.738;10.050;2022-12-15T20:11:37;23.60;;;11.97;;
5702;SDS011;2876;51.738;10.050;2022-12-15T20:17:38;20.40;;;11.60;;
5702;SDS011;2876;51.738;10.050;2022-12-15T20:24:15;20.20;;;11.37;;
5702;SDS011;2876;51.738;10.050;2022-12-15T20:30:18;18.67;;;11.60;;
5702;SDS011;2876;51.738;10.050;2022-12-15T20:36:24;20.17;;;12.73;;
5702;SDS011;2876;51.738;10.050;2022-12-15T20:42:29;28.40;;;14.07;;
5702;SDS011;2876;51.738;10.050;2022-12-15T20:48:32;25.13;;;13.80;;
5702;SDS011;2876;51.738;10.050;2022-12-15T20:54:36;20.17;;;12.07;;
5702;SDS011;2876;51.738;10.050;2022-12-15T21:00:38;26.03;;;13.33;;
5702;SDS011;2876;51.738;10.050;2022-12-15T21:06:41;22.17;;;13.07;;
5702;SDS011;2876;51.738;10.050;2022-12-15T21:12:47;22.00;;;12.57;;
5702;SDS011;2876;51.738;10.050;2022-12-15T21:18:50;25.60;;;13.10;;
5702;SDS011;2876;51.738;10.050;2022-12-15T21:25:14;29.23;;;16.70;;
5702;SDS011;2876;51.738;10.050;2022-12-15T21:31:26;38.67;;;19.03;;
5702;SDS011;2876;51.738;10.050;2022-12-15T21:37:28;42.37;;;16.40;;
5702;SDS011;2876;51.738;10.050;2022-12-15T21:43:32;28.67;;;15.90;;
5702;SDS011;2876;51.738;10.050;2022-12-15T21:49:35;30.10;;;15.97;;
5702;SDS011;2876;51.738;10.050;2022-12-15T21:55:37;29.90;;;15.60;;
5702;SDS011;2876;51.738;10.050;2022-12-15T22:01:41;23.27;;;11.97;;
5702;SDS011;2876;51.738;10.050;2022-12-15T22:07:43;24.87;;;11.90;;
5702;SDS011;2876;51.738;10.050;2022-12-15T22:13:46;30.67;;;11.43;;
5702;SDS011;2876;51.738;10.050;2022-12-15T22:19:49;25.17;;;11.83;;
5702;SDS011;2876;51.738;10.050;2022-12-15T22:25:52;24.07;;;11.80;;
5702;SDS011;2876;51.738;10.050;2022-12-15T22:31:56;35.40;;;15.13;;
5702;SDS011;2876;51.738;10.050;2022-12-15T22:37:58;40.30;;;23.70;;
5702;SDS011;2876;51.738;10.050;2022-12-15T22:44:00;34.10;;;18.00;;
5702;SDS011;2876;51.738;10.050;2022-12-15T22:50:03;38.03;;;18.93;;
5702;SDS011;2876;51.738;10.050;2022-12-15T22:56:14;22.30;;;13.50;;
5702;SDS011;2876;51.738;10.050;2022-12-15T23:02:31;35.07;;;15.93;;
5702;SDS011;2876;51.738;10.050;2022-12-15T23:08:37;30.43;;;15.80;;
5702;SDS011;2876;51.738;10.050;2022-12-15T23:14:39;26.10;;;13.57;;
5702;SDS011;2876;51.738;10.050;2022-12-15T23:20:59;20.20;;;12.50;;
5702;SDS011;2876;51.738;10.050;2022-12-15T23:27:01;25.73;;;13.60;;
5702;SDS011;2876;51.738;10.050;2022-12-15T23:33:04;28.80;;;13.83;;
5702;SDS011;2876;51.738;10.050;2022-12-15T23:39:05;27.53;;;14.43;;
5702;SDS011;2876;51.738;10.050;2022-12-15T23:45:08;36.97;;;15.23;;
5702;SDS011;2876;51.738;10.050;2022-12-15T23:51:12;30.83;;;14.60;;
5702;SDS011;2876;51.738;10.050;2022-12-15T23:57:17;36.57;;;15.73;;
